Página principal
METAR-TAF:

METAR-TAF

Aeroportos :

Ouarzazate, Marrocos

latitude: 30-56N, longitude: 006-54W, altura: 1139 m

Observação actual do tempo

O boletim foi feito há 58 minutos, às 13:00 UTC
Vento 3 kt de es-sudeste
Temperatura 37°C
Humidade 10%
Pressão 1023 hPa
Visibilidade: 8000 m
Poucas nuvensa uma altura de 4000 ft

METAR: GMMZ 071300Z 11003KT 8000 FEW040 37/01 Q1023 NOSIG

Hora: 14:58 (13:58 UTC)

Previsão

O boletim foi feito há 2 horas e 58 minutos, às 11:00 UTC
Previsão válida de 07 às 12 UTC a 08 às 18 UTC
Vento 3 kt de oeste
Visibilidade: 8000 m
Temporariamente
de 07 às 15 UTC a 07 às 21 UTC
Vento 15 kt de oes-sudoeste com rajadas de 30 kt
Visibilidade: 8000 m
Nuvens dispersasa uma altura de 4000 ft
Poucas nuvensa uma altura de 5000 ft, Cumulus congestus.

TAF: GMMZ 071100Z 0712/0818 28003KT 8000 NSC TEMPO 0715/0721 24015G30KT 8000 SCT040 FEW050TCU

Observações e previsões do tempo de mais de 4000 aeroportos (mensagens METAR e TAF).

As estações disponíveis são os pontos amarelos e vermelhos sobre o mapa.

Mova o rato sobre o mapa para ver o nome da estação.

Depois clique no ponto para visualizar as observações e previsões meteorológicas.

Para alterar o mapa : clique nos botões verdes com uma cruz preta para aumentar o zoom; no botão verde com uma pitada de zoom; ou nas setas verdes para mapas adjacentes.


METAR-TAF: